createdAt,value
2022-11-21T00:01:37.332Z,8.40
2022-11-21T00:04:05.057Z,8.05
2022-11-21T00:06:32.814Z,5.82
2022-11-21T00:09:00.751Z,7.68
2022-11-21T00:11:28.580Z,6.65
2022-11-21T00:13:56.400Z,7.03
2022-11-21T00:16:24.261Z,8.80
2022-11-21T00:18:52.232Z,7.20
2022-11-21T00:21:20.992Z,7.13
2022-11-21T00:23:49.286Z,7.88
2022-11-21T00:26:17.787Z,9.27
2022-11-21T00:28:46.095Z,9.10
2022-11-21T00:31:25.290Z,9.85
2022-11-21T00:33:53.089Z,8.75
2022-11-21T00:36:20.765Z,7.30
2022-11-21T00:38:48.852Z,5.80
2022-11-21T00:41:16.668Z,6.68
2022-11-21T00:43:44.484Z,8.07
2022-11-21T00:46:12.398Z,9.38
2022-11-21T00:48:40.321Z,10.73
2022-11-21T00:51:07.989Z,10.82
2022-11-21T00:53:35.970Z,10.30
2022-11-21T00:56:03.993Z,8.70
2022-11-21T00:58:31.830Z,8.73
2022-11-21T01:01:11.089Z,8.63
2022-11-21T01:03:39.407Z,7.70
2022-11-21T01:06:10.491Z,7.88
2022-11-21T01:08:40.642Z,9.55
2022-11-21T01:11:14.131Z,8.50
2022-11-21T01:13:42.580Z,8.88
2022-11-21T01:16:16.138Z,8.85
2022-11-21T01:18:44.474Z,7.50
2022-11-21T01:21:21.504Z,6.45
2022-11-21T01:23:49.637Z,9.27
2022-11-21T01:26:19.940Z,10.70
2022-11-21T01:28:47.971Z,10.73
2022-11-21T01:31:21.167Z,7.78
2022-11-21T01:33:49.464Z,7.72
2022-11-21T01:36:25.838Z,6.43
2022-11-21T01:38:55.598Z,13.30
2022-11-21T01:41:30.250Z,7.97
2022-11-21T01:43:59.113Z,12.10
2022-11-21T01:46:27.533Z,10.50
2022-11-21T01:49:05.457Z,9.40
2022-11-21T01:51:55.677Z,9.40
2022-11-21T01:54:37.887Z,7.00
2022-11-21T01:57:09.968Z,9.70
2022-11-21T01:59:46.651Z,8.00
2022-11-21T02:02:16.418Z,8.43
2022-11-21T02:04:44.810Z,9.30
2022-11-21T02:07:14.163Z,10.10
2022-11-21T02:09:43.972Z,7.35
2022-11-21T02:12:26.957Z,10.82
2022-11-21T02:14:55.855Z,7.30
2022-11-21T02:17:23.706Z,8.90
2022-11-21T02:19:58.208Z,10.52
2022-11-21T02:22:41.235Z,8.05
2022-11-21T02:25:20.811Z,8.63
2022-11-21T02:27:50.793Z,9.63
2022-11-21T02:30:19.111Z,9.38
2022-11-21T02:32:47.545Z,9.23
2022-11-21T02:35:16.928Z,8.25
2022-11-21T02:37:47.765Z,8.55
2022-11-21T02:40:22.440Z,10.32
2022-11-21T02:43:03.071Z,9.32
2022-11-21T02:49:51.642Z,7.72
2022-11-21T02:52:19.389Z,9.98
2022-11-21T02:54:47.296Z,8.15
2022-11-21T02:57:15.220Z,8.75
2022-11-21T02:59:43.005Z,7.95
2022-11-21T03:02:10.846Z,9.20
2022-11-21T03:04:38.825Z,9.20
2022-11-21T03:07:06.938Z,9.32
2022-11-21T03:09:35.024Z,10.80
2022-11-21T03:12:07.445Z,9.18
2022-11-21T03:14:38.617Z,12.75
2022-11-21T03:17:06.352Z,7.40
2022-11-21T03:19:34.382Z,8.32
2022-11-21T03:22:02.934Z,8.38
2022-11-21T03:24:30.972Z,9.73
2022-11-21T03:27:00.381Z,10.27
2022-11-21T03:29:28.427Z,8.88
2022-11-21T03:31:56.200Z,10.68
2022-11-21T03:34:25.575Z,10.18
2022-11-21T03:36:53.544Z,8.00
2022-11-21T03:39:21.312Z,9.00
2022-11-21T03:41:49.277Z,7.88
2022-11-21T03:44:17.604Z,8.77
2022-11-21T03:46:46.912Z,10.82
2022-11-21T03:49:17.041Z,8.52
2022-11-21T03:51:45.557Z,10.93
2022-11-21T03:54:14.542Z,9.35
2022-11-21T03:56:42.378Z,7.72
2022-11-21T03:59:10.175Z,7.22
2022-11-21T04:01:37.992Z,8.60
2022-11-21T04:04:06.277Z,9.93
2022-11-21T04:06:34.077Z,8.95
2022-11-21T04:09:02.212Z,9.60
2022-11-21T04:11:29.968Z,10.77
2022-11-21T04:13:57.782Z,11.07
2022-11-21T04:16:25.619Z,9.10
2022-11-21T04:18:53.507Z,11.15
2022-11-21T04:21:21.449Z,13.93
2022-11-21T04:23:49.420Z,8.18
2022-11-21T04:26:17.218Z,11.18
2022-11-21T04:28:45.063Z,10.15
2022-11-21T04:31:12.861Z,8.60
2022-11-21T04:33:40.660Z,9.15
2022-11-21T04:36:09.416Z,7.22
2022-11-21T04:38:37.546Z,8.52
2022-11-21T04:41:05.394Z,7.07
2022-11-21T04:43:33.110Z,5.60
2022-11-21T04:46:00.880Z,6.55
2022-11-21T04:48:28.799Z,5.30
2022-11-21T04:50:56.873Z,5.22
2022-11-21T04:53:24.845Z,5.35
2022-11-21T04:55:52.733Z,8.00
2022-11-21T04:58:20.598Z,6.00
2022-11-21T05:00:48.869Z,6.07
2022-11-21T05:03:17.005Z,7.72
2022-11-21T05:05:44.826Z,6.85
2022-11-21T05:08:12.675Z,6.82
2022-11-21T05:10:59.123Z,8.02
2022-11-21T05:13:27.188Z,8.23
2022-11-21T05:15:59.131Z,7.82
2022-11-21T05:18:27.188Z,10.40
2022-11-21T05:20:55.036Z,8.95
2022-11-21T05:23:22.999Z,7.05
2022-11-21T05:25:50.791Z,9.30
2022-11-21T05:28:18.803Z,7.88
2022-11-21T05:30:46.671Z,7.95
2022-11-21T05:33:14.642Z,9.70
2022-11-21T05:35:43.662Z,9.93
2022-11-21T05:38:12.101Z,9.88
2022-11-21T05:40:43.135Z,8.75
2022-11-21T05:43:30.798Z,9.73
2022-11-21T05:45:58.619Z,8.23
2022-11-21T05:48:26.453Z,7.90
2022-11-21T05:50:54.149Z,7.80
2022-11-21T05:53:22.101Z,9.73
2022-11-21T05:55:49.952Z,11.02
2022-11-21T05:58:17.695Z,11.23
2022-11-21T06:00:45.698Z,9.48
2022-11-21T06:03:28.919Z,9.02
2022-11-21T06:06:08.478Z,9.40
2022-11-21T06:08:42.528Z,11.05
2022-11-21T06:11:13.095Z,10.38
2022-11-21T06:13:41.520Z,10.20
2022-11-21T06:16:14.722Z,10.10
2022-11-21T06:18:48.000Z,9.70
2022-11-21T06:21:17.081Z,8.50
2022-11-21T06:23:45.604Z,8.63
2022-11-21T06:26:18.558Z,8.75
2022-11-21T06:28:47.267Z,9.57
2022-11-21T06:31:23.593Z,9.88
2022-11-21T06:33:58.738Z,10.40
2022-11-21T06:36:27.481Z,10.20
2022-11-21T06:38:56.167Z,9.50
2022-11-21T06:41:26.302Z,12.30
2022-11-21T06:43:54.465Z,14.60
2022-11-21T06:46:22.354Z,11.18
2022-11-21T06:48:50.089Z,11.52
2022-11-21T06:51:20.038Z,12.57
2022-11-21T06:53:49.326Z,10.80
2022-11-21T06:56:17.245Z,10.88
2022-11-21T06:58:45.170Z,12.82
2022-11-21T07:01:13.744Z,11.88
2022-11-21T07:03:41.697Z,10.80
2022-11-21T07:06:09.543Z,9.70
2022-11-21T07:08:38.170Z,10.25
2022-11-21T07:11:24.677Z,11.60
2022-11-21T07:13:53.296Z,13.95
2022-11-21T07:16:21.326Z,13.32
2022-11-21T07:18:49.401Z,13.35
2022-11-21T07:21:17.283Z,11.02
2022-11-21T07:23:45.174Z,19.40
2022-11-21T07:26:13.031Z,12.77
2022-11-21T07:28:41.067Z,11.43
2022-11-21T07:31:13.738Z,12.60
2022-11-21T07:33:47.031Z,15.10
2022-11-21T07:36:15.049Z,10.30
2022-11-21T07:38:42.986Z,11.50
2022-11-21T07:41:11.220Z,13.27
2022-11-21T07:43:39.256Z,12.93
2022-11-21T07:46:07.001Z,12.63
2022-11-21T07:48:34.939Z,15.73
2022-11-21T07:51:05.237Z,13.68
2022-11-21T07:53:33.156Z,11.23
2022-11-21T07:56:01.045Z,14.82
2022-11-21T07:58:29.272Z,13.73
2022-11-21T08:00:57.432Z,12.55
2022-11-21T08:03:25.710Z,14.02
2022-11-21T08:05:53.561Z,12.48
2022-11-21T08:08:21.471Z,11.63
2022-11-21T08:10:49.441Z,9.65
2022-11-21T08:13:17.562Z,12.32
2022-11-21T08:15:45.512Z,10.90
2022-11-21T08:18:21.068Z,10.95
2022-11-21T08:20:48.959Z,16.25
2022-11-21T08:23:17.153Z,10.27
2022-11-21T08:25:45.454Z,11.20
2022-11-21T08:28:13.866Z,9.20
2022-11-21T08:30:41.787Z,10.70
2022-11-21T08:33:09.489Z,9.57
2022-11-21T08:35:38.554Z,13.20
2022-11-21T08:38:06.820Z,8.32
2022-11-21T08:40:35.398Z,9.20
2022-11-21T08:43:06.078Z,8.35
2022-11-21T08:45:35.025Z,9.30
2022-11-21T08:48:03.428Z,8.88
2022-11-21T08:50:32.296Z,8.98
2022-11-21T08:53:01.922Z,9.30
2022-11-21T08:55:30.783Z,10.25
2022-11-21T08:57:59.020Z,6.38
2022-11-21T09:00:27.540Z,9.05
2022-11-21T09:02:55.348Z,9.75
2022-11-21T09:05:23.160Z,12.95
2022-11-21T09:07:57.782Z,8.75
2022-11-21T09:10:29.572Z,11.98
2022-11-21T09:13:00.307Z,6.93
2022-11-21T09:15:47.901Z,9.88
2022-11-21T09:18:18.304Z,7.18
2022-11-21T09:20:46.177Z,7.35
2022-11-21T09:23:15.588Z,7.78
2022-11-21T09:25:44.006Z,7.15
2022-11-21T09:28:14.904Z,7.77
2022-11-21T09:30:43.725Z,6.32
2022-11-21T09:33:17.110Z,7.90
2022-11-21T09:35:45.044Z,6.80
2022-11-21T09:38:12.964Z,9.05
2022-11-21T09:40:44.449Z,5.88
2022-11-21T09:43:36.611Z,5.18
2022-11-21T09:46:14.187Z,7.68
2022-11-21T09:49:02.106Z,6.85
2022-11-21T09:51:32.160Z,6.60
2022-11-21T09:54:06.343Z,6.57
2022-11-21T09:56:39.655Z,6.55
2022-11-21T09:59:29.213Z,6.57
2022-11-21T10:01:57.804Z,5.00
2022-11-21T10:04:27.198Z,3.50
2022-11-21T10:06:55.266Z,4.53
2022-11-21T10:09:32.141Z,8.88
2022-11-21T10:12:40.137Z,4.40
2022-11-21T10:15:35.620Z,4.88
2022-11-21T10:18:18.622Z,5.20
2022-11-21T10:20:58.050Z,4.50
2022-11-21T10:23:56.771Z,5.40
2022-11-21T10:26:39.967Z,6.00
2022-11-21T10:29:22.544Z,5.95
2022-11-21T10:31:50.787Z,6.72
2022-11-21T10:34:25.036Z,7.50
2022-11-21T10:36:59.306Z,5.07
2022-11-21T10:39:40.287Z,8.13
2022-11-21T10:45:12.791Z,6.18
2022-11-21T10:47:40.593Z,6.03
2022-11-21T10:50:30.366Z,5.60
2022-11-21T10:53:39.145Z,5.57
2022-11-21T10:56:08.878Z,6.35
2022-11-21T10:58:53.300Z,5.60
2022-11-21T11:01:22.144Z,6.47
2022-11-21T11:04:27.765Z,6.32
2022-11-21T11:06:53.747Z,5.65
2022-11-21T11:09:32.581Z,5.07
2022-11-21T11:12:50.193Z,5.72
2022-11-21T11:15:23.588Z,10.57
2022-11-21T11:18:09.013Z,4.85
2022-11-21T11:20:42.627Z,11.25
2022-11-21T11:23:25.469Z,4.90
2022-11-21T11:26:00.400Z,6.70
2022-11-21T11:28:35.562Z,7.25
2022-11-21T11:31:04.212Z,8.65
2022-11-21T11:33:43.968Z,6.03
2022-11-21T11:36:23.346Z,9.20
2022-11-21T11:38:59.338Z,27.58
2022-11-21T11:42:17.150Z,11.63
2022-11-21T11:45:31.210Z,6.57
2022-11-21T11:48:12.636Z,7.30
2022-11-21T11:50:52.387Z,5.85
2022-11-21T11:53:20.767Z,8.05
2022-11-21T11:56:01.477Z,22.75
2022-11-21T12:01:03.258Z,6.75
2022-11-21T12:03:59.878Z,6.25
2022-11-21T12:09:53.505Z,7.20
2022-11-21T12:12:37.126Z,6.05
2022-11-21T12:15:42.420Z,9.38
2022-11-21T12:18:19.731Z,6.78
2022-11-21T12:21:03.145Z,6.78
2022-11-21T12:23:37.852Z,6.10
2022-11-21T12:26:09.606Z,6.18
2022-11-21T12:28:41.581Z,3.90
2022-11-21T12:31:48.200Z,4.68
2022-11-21T12:34:21.056Z,5.28
2022-11-21T12:36:54.727Z,5.38
2022-11-21T12:39:34.858Z,4.10
2022-11-21T12:42:33.406Z,10.13
2022-11-21T12:45:12.831Z,6.93
2022-11-21T12:48:34.743Z,6.78
2022-11-21T12:51:40.140Z,5.03
2022-11-21T12:54:33.500Z,5.45
2022-11-21T12:57:11.920Z,5.53
2022-11-21T13:00:09.431Z,5.43
2022-11-21T13:02:52.291Z,5.28
2022-11-21T13:05:26.978Z,5.13
2022-11-21T13:08:12.671Z,8.60
2022-11-21T13:11:22.623Z,5.70
2022-11-21T13:13:55.837Z,7.20
2022-11-21T13:16:39.788Z,5.80
2022-11-21T13:20:03.026Z,7.35
2022-11-21T13:22:36.909Z,6.00
2022-11-21T13:25:10.101Z,6.38
2022-11-21T13:27:44.973Z,6.22
2022-11-21T13:30:13.036Z,11.25
2022-11-21T13:32:43.058Z,5.40
2022-11-21T13:35:19.778Z,6.43
2022-11-21T13:37:50.603Z,7.28
2022-11-21T13:40:27.798Z,8.68
2022-11-21T13:43:36.473Z,7.10
2022-11-21T13:46:06.631Z,7.07
2022-11-21T13:48:57.898Z,6.55
2022-11-21T13:54:24.063Z,5.60
2022-11-21T13:57:20.871Z,6.97
2022-11-21T14:00:22.300Z,7.35
2022-11-21T14:03:32.400Z,7.57
2022-11-21T14:06:32.464Z,7.20
2022-11-21T14:09:09.060Z,5.95
2022-11-21T14:11:58.828Z,8.48
2022-11-21T14:14:39.386Z,8.27
2022-11-21T14:17:44.804Z,7.68
2022-11-21T14:20:42.455Z,6.72
2022-11-21T14:23:21.990Z,7.00
2022-11-21T14:25:55.704Z,7.30
2022-11-21T14:28:25.086Z,5.50
2022-11-21T14:31:06.878Z,8.23
2022-11-21T14:33:45.550Z,6.80
2022-11-21T14:36:21.187Z,7.65
2022-11-21T14:39:13.944Z,7.78
2022-11-21T14:41:39.776Z,7.05
2022-11-21T14:44:16.350Z,6.00
2022-11-21T14:46:45.397Z,10.90
2022-11-21T14:49:24.566Z,6.70
2022-11-21T14:52:03.869Z,7.88
2022-11-21T14:55:06.081Z,7.32
2022-11-21T14:57:42.658Z,5.85
2022-11-21T15:00:36.187Z,8.60
2022-11-21T15:03:03.546Z,7.97
2022-11-21T15:11:13.993Z,7.90
2022-11-21T15:14:12.380Z,5.97
2022-11-21T15:16:30.363Z,5.18
2022-11-21T15:18:58.333Z,5.43
2022-11-21T15:21:26.235Z,5.97
2022-11-21T15:23:56.696Z,4.22
2022-11-21T15:26:31.321Z,5.43
2022-11-21T15:29:00.955Z,4.70
2022-11-21T15:31:29.174Z,5.90
2022-11-21T15:34:34.858Z,6.95
2022-11-21T15:37:05.055Z,6.45
2022-11-21T15:39:34.417Z,7.25
2022-11-21T15:42:33.120Z,5.93
2022-11-21T15:45:20.852Z,4.45
2022-11-21T15:47:49.135Z,4.75
2022-11-21T15:50:17.245Z,6.88
2022-11-21T15:52:49.625Z,7.63
2022-11-21T15:55:27.202Z,5.22
2022-11-21T15:57:55.201Z,6.15
2022-11-21T16:00:23.242Z,5.80
2022-11-21T16:02:51.232Z,8.13
2022-11-21T16:05:18.939Z,6.90
2022-11-21T16:07:48.431Z,7.75
2022-11-21T16:10:22.654Z,5.30
2022-11-21T16:12:55.829Z,7.03
2022-11-21T16:15:24.075Z,5.60
2022-11-21T16:17:53.007Z,5.30
2022-11-21T16:20:21.022Z,5.72
2022-11-21T16:22:50.059Z,4.85
2022-11-21T16:25:18.112Z,5.95
2022-11-21T16:27:47.249Z,8.02
2022-11-21T16:30:15.538Z,5.30
2022-11-21T16:32:43.363Z,6.45
2022-11-21T16:35:11.335Z,4.75
2022-11-21T16:37:39.905Z,5.30
2022-11-21T16:40:08.556Z,7.63
2022-11-21T16:42:36.286Z,7.78
2022-11-21T16:45:04.349Z,6.80
2022-11-21T16:47:32.122Z,6.35
2022-11-21T16:49:59.738Z,7.07
2022-11-21T16:52:27.639Z,7.00
2022-11-21T16:54:55.593Z,5.88
2022-11-21T16:57:23.461Z,8.73
2022-11-21T16:59:51.383Z,6.57
2022-11-21T17:02:19.238Z,6.18
2022-11-21T17:04:47.118Z,6.43
2022-11-21T17:07:15.016Z,4.28
2022-11-21T17:09:42.960Z,6.45
2022-11-21T17:12:10.900Z,5.40
2022-11-21T17:14:38.806Z,7.03
2022-11-21T17:17:06.957Z,5.32
2022-11-21T17:19:34.838Z,4.30
2022-11-21T17:22:02.950Z,7.25
2022-11-21T17:24:30.994Z,5.53
2022-11-21T17:27:01.259Z,5.72
2022-11-21T17:29:32.182Z,10.05
2022-11-21T17:32:00.054Z,5.78
2022-11-21T17:34:32.686Z,6.10
2022-11-21T17:37:00.970Z,5.35
2022-11-21T17:39:30.140Z,6.25
2022-11-21T17:42:01.867Z,5.60
2022-11-21T17:44:30.201Z,6.78
2022-11-21T17:46:59.521Z,6.85
2022-11-21T17:49:30.176Z,5.30
2022-11-21T17:51:58.285Z,5.57
2022-11-21T17:54:26.386Z,6.47
2022-11-21T17:56:56.974Z,5.28
2022-11-21T17:59:25.148Z,7.03
2022-11-21T18:01:53.151Z,6.10
2022-11-21T18:04:21.411Z,5.78
2022-11-21T18:06:49.585Z,5.82
2022-11-21T18:09:17.363Z,6.65
2022-11-21T18:11:46.325Z,8.27
2022-11-21T18:14:14.561Z,5.63
2022-11-21T18:16:47.583Z,6.85
2022-11-21T18:19:19.032Z,6.78
2022-11-21T18:21:47.131Z,6.32
2022-11-21T18:24:15.130Z,6.97
2022-11-21T18:26:43.036Z,6.43
2022-11-21T18:31:59.175Z,6.85
2022-11-21T18:34:27.080Z,5.55
2022-11-21T18:36:54.995Z,7.03
2022-11-21T18:39:25.250Z,8.77
2022-11-21T18:41:53.107Z,8.02
2022-11-21T18:44:22.440Z,7.88
2022-11-21T18:46:52.144Z,6.70
2022-11-21T18:49:20.098Z,8.07
2022-11-21T18:51:48.637Z,8.80
2022-11-21T18:54:16.779Z,7.63
2022-11-21T18:56:44.669Z,10.57
2022-11-21T18:59:12.532Z,9.43
2022-11-21T19:01:40.754Z,7.60
2022-11-21T19:04:09.505Z,8.00
2022-11-21T19:06:37.454Z,9.52
2022-11-21T19:09:05.673Z,8.23
2022-11-21T19:11:33.460Z,8.02
2022-11-21T19:14:01.695Z,8.45
2022-11-21T19:16:34.579Z,8.40
2022-11-21T19:19:33.567Z,9.68
2022-11-21T19:21:53.234Z,9.63
2022-11-21T19:24:21.903Z,7.68
2022-11-21T19:26:50.700Z,8.93
2022-11-21T19:29:19.036Z,8.73
2022-11-21T19:31:46.863Z,9.45
2022-11-21T19:34:15.628Z,10.45
2022-11-21T19:36:43.968Z,11.50
2022-11-21T19:39:12.487Z,13.43
2022-11-21T19:41:40.511Z,8.98
2022-11-21T19:44:08.625Z,9.98
2022-11-21T19:46:38.919Z,14.00
2022-11-21T19:49:08.010Z,9.70
2022-11-21T19:51:40.894Z,11.55
2022-11-21T19:54:10.203Z,13.73
2022-11-21T19:56:38.197Z,10.82
2022-11-21T19:59:06.456Z,14.73
2022-11-21T20:01:34.999Z,16.63
2022-11-21T20:04:04.691Z,12.63
2022-11-21T20:06:38.928Z,14.75
2022-11-21T20:09:25.230Z,15.00
2022-11-21T20:11:53.646Z,14.57
2022-11-21T20:14:22.879Z,13.38
2022-11-21T20:16:53.044Z,17.45
2022-11-21T20:19:22.917Z,19.20
2022-11-21T20:21:51.420Z,15.55
2022-11-21T20:24:19.588Z,13.13
2022-11-21T20:26:47.479Z,16.45
2022-11-21T20:29:15.859Z,16.25
2022-11-21T20:31:46.853Z,17.80
2022-11-21T20:34:14.909Z,15.27
2022-11-21T20:36:43.501Z,14.98
2022-11-21T20:39:16.475Z,17.88
2022-11-21T20:41:45.523Z,20.92
2022-11-21T20:47:09.634Z,26.08
2022-11-21T20:49:37.993Z,25.05
2022-11-21T20:54:54.680Z,19.98
2022-11-21T20:57:22.621Z,25.02
2022-11-21T20:59:50.462Z,19.13
2022-11-21T21:02:18.337Z,22.63
2022-11-21T21:04:46.200Z,20.95
2022-11-21T21:07:14.163Z,22.92
2022-11-21T21:09:44.563Z,23.95
2022-11-21T21:12:12.310Z,24.05
2022-11-21T21:14:40.118Z,26.67
2022-11-21T21:17:07.886Z,28.23
2022-11-21T21:19:35.538Z,22.75
2022-11-21T21:22:05.301Z,30.10
2022-11-21T21:24:33.286Z,26.02
2022-11-21T21:27:01.099Z,23.15
2022-11-21T21:29:29.472Z,20.55
2022-11-21T21:31:57.710Z,26.85
2022-11-21T21:34:25.594Z,23.00
2022-11-21T21:36:53.500Z,30.23
2022-11-21T21:39:21.463Z,23.40
2022-11-21T21:41:49.527Z,22.98
2022-11-21T21:44:17.517Z,28.08
2022-11-21T21:46:45.623Z,30.52
2022-11-21T21:49:13.755Z,27.02
2022-11-21T21:51:41.644Z,28.33
2022-11-21T21:54:17.320Z,25.08
2022-11-21T21:56:46.974Z,24.95
2022-11-21T21:59:15.342Z,25.63
2022-11-21T22:01:43.387Z,22.48
2022-11-21T22:04:12.828Z,24.13
2022-11-21T22:06:40.688Z,24.60
2022-11-21T22:09:08.752Z,26.67
2022-11-21T22:11:38.454Z,23.85
2022-11-21T22:14:08.587Z,22.95
2022-11-21T22:16:36.600Z,26.63
2022-11-21T22:19:04.405Z,23.10
2022-11-21T22:21:34.559Z,28.80
2022-11-21T22:24:27.461Z,27.65
2022-11-21T22:26:55.570Z,24.85
2022-11-21T22:29:23.555Z,25.60
2022-11-21T22:31:51.896Z,28.80
2022-11-21T22:34:19.860Z,26.92
2022-11-21T22:36:48.153Z,33.10
2022-11-21T22:39:17.609Z,25.25
2022-11-21T22:41:45.695Z,26.83
2022-11-21T22:44:13.606Z,28.40
2022-11-21T22:46:41.556Z,27.23
2022-11-21T22:49:09.477Z,32.42
2022-11-21T22:51:37.325Z,26.75
2022-11-21T22:54:05.403Z,27.33
2022-11-21T22:56:33.224Z,26.27
2022-11-21T22:59:00.992Z,26.38
2022-11-21T23:01:28.851Z,29.83
2022-11-21T23:03:56.739Z,27.80
2022-11-21T23:06:26.602Z,35.65
2022-11-21T23:08:56.114Z,33.63
2022-11-21T23:11:29.484Z,32.38
2022-11-21T23:13:58.043Z,34.72
2022-11-21T23:16:26.882Z,32.53
2022-11-21T23:18:55.601Z,34.42
2022-11-21T23:21:23.620Z,27.75
2022-11-21T23:23:51.472Z,31.60
2022-11-21T23:26:19.767Z,33.50
2022-11-21T23:28:47.942Z,26.23
2022-11-21T23:31:16.193Z,27.40
2022-11-21T23:33:44.194Z,31.23
2022-11-21T23:36:14.343Z,27.50
2022-11-21T23:38:42.292Z,30.23
2022-11-21T23:41:10.726Z,28.10
2022-11-21T23:43:38.685Z,26.60
2022-11-21T23:46:06.637Z,27.77
2022-11-21T23:48:34.453Z,26.17
2022-11-21T23:51:02.379Z,29.65
2022-11-21T23:53:30.271Z,27.90
2022-11-21T23:55:58.105Z,38.28
2022-11-21T23:58:26.086Z,32.13
